createdAt,value
2023-04-03T00:02:06.964Z,4.30
2023-04-03T00:04:33.713Z,4.30
2023-04-03T00:07:00.448Z,4.10
2023-04-03T00:09:27.144Z,4.10
2023-04-03T00:11:53.859Z,4.20
2023-04-03T00:14:21.930Z,4.10
2023-04-03T00:16:48.615Z,4.00
2023-04-03T00:19:15.650Z,4.00
2023-04-03T00:21:42.363Z,4.00
2023-04-03T00:24:09.010Z,4.00
2023-04-03T00:26:35.687Z,4.10
2023-04-03T00:29:02.604Z,4.00
2023-04-03T00:31:29.298Z,4.00
2023-04-03T00:33:56.102Z,4.00
2023-04-03T00:36:23.016Z,3.90
2023-04-03T00:38:49.824Z,3.80
2023-04-03T00:41:16.580Z,3.80
2023-04-03T00:43:43.303Z,3.80
2023-04-03T00:46:10.063Z,3.70
2023-04-03T00:48:45.889Z,3.70
2023-04-03T00:51:17.483Z,3.60
2023-04-03T00:54:05.859Z,3.60
2023-04-03T00:56:33.259Z,3.60
2023-04-03T00:59:11.139Z,3.50
2023-04-03T01:01:38.657Z,3.40
2023-04-03T01:04:06.898Z,3.50
2023-04-03T01:06:37.652Z,3.40
2023-04-03T01:09:05.904Z,3.40
2023-04-03T01:11:32.699Z,3.30
2023-04-03T01:13:59.611Z,3.20
2023-04-03T01:16:26.412Z,3.10
2023-04-03T01:18:54.231Z,3.10
2023-04-03T01:21:42.804Z,3.00
2023-04-03T01:24:18.337Z,3.00
2023-04-03T01:26:45.907Z,2.90
2023-04-03T01:29:13.612Z,2.80
2023-04-03T01:31:58.781Z,2.80
2023-04-03T01:34:26.365Z,2.80
2023-04-03T01:36:53.515Z,2.80
2023-04-03T01:39:20.947Z,2.70
2023-04-03T01:41:48.180Z,2.70
2023-04-03T01:44:14.942Z,2.60
2023-04-03T01:46:43.268Z,2.50
2023-04-03T01:49:10.611Z,2.50
2023-04-03T01:51:37.281Z,2.50
2023-04-03T01:54:04.962Z,2.50
2023-04-03T01:56:31.854Z,2.40
2023-04-03T01:58:58.580Z,2.40
2023-04-03T02:01:26.944Z,2.40
2023-04-03T02:03:53.924Z,2.40
2023-04-03T02:06:20.745Z,2.30
2023-04-03T02:08:47.513Z,2.30
2023-04-03T02:11:14.226Z,2.20
2023-04-03T02:13:41.020Z,2.20
2023-04-03T02:16:10.900Z,2.10
2023-04-03T02:18:38.359Z,2.30
2023-04-03T02:21:05.372Z,2.20
2023-04-03T02:23:32.164Z,2.20
2023-04-03T02:26:10.258Z,2.20
2023-04-03T02:28:37.680Z,2.30
2023-04-03T02:31:07.302Z,2.10
2023-04-03T02:33:34.788Z,2.20
2023-04-03T02:36:01.441Z,2.30
2023-04-03T02:38:28.212Z,2.40
2023-04-03T02:40:54.879Z,2.40
2023-04-03T02:43:21.545Z,2.30
2023-04-03T02:45:48.250Z,2.20
2023-04-03T02:48:15.795Z,2.20
2023-04-03T02:50:42.660Z,2.20
2023-04-03T02:53:09.473Z,2.10
2023-04-03T02:55:36.158Z,2.20
2023-04-03T02:58:02.926Z,2.20
2023-04-03T03:00:29.813Z,2.20
2023-04-03T03:02:56.481Z,2.10
2023-04-03T03:05:23.416Z,2.20
2023-04-03T03:07:51.137Z,2.20
2023-04-03T03:10:17.924Z,2.20
2023-04-03T03:12:44.738Z,2.10
2023-04-03T03:15:11.767Z,2.10
2023-04-03T03:17:38.610Z,2.10
2023-04-03T03:20:06.836Z,2.10
2023-04-03T03:22:35.213Z,2.00
2023-04-03T03:25:04.359Z,2.10
2023-04-03T03:27:31.003Z,2.00
2023-04-03T03:29:57.750Z,2.10
2023-04-03T03:32:24.512Z,2.20
2023-04-03T03:34:51.170Z,2.10
2023-04-03T03:37:17.960Z,2.10
2023-04-03T03:39:44.691Z,2.20
2023-04-03T03:42:12.248Z,2.10
2023-04-03T03:44:38.991Z,2.10
2023-04-03T03:47:07.102Z,2.00
2023-04-03T03:49:33.822Z,2.00
2023-04-03T03:52:00.454Z,1.90
2023-04-03T03:54:27.160Z,1.90
2023-04-03T03:56:53.846Z,1.80
2023-04-03T03:59:21.121Z,1.70
2023-04-03T04:01:47.942Z,1.60
2023-04-03T04:04:14.786Z,1.60
2023-04-03T04:06:41.612Z,1.50
2023-04-03T04:09:09.658Z,1.60
2023-04-03T04:11:36.369Z,1.50
2023-04-03T04:14:03.018Z,1.60
2023-04-03T04:16:30.849Z,1.50
2023-04-03T04:18:57.568Z,1.60
2023-04-03T04:21:24.238Z,1.60
2023-04-03T04:23:50.951Z,1.60
2023-04-03T04:26:17.606Z,1.60
2023-04-03T04:28:44.272Z,1.60
2023-04-03T04:31:11.054Z,1.50
2023-04-03T04:33:37.756Z,1.50
2023-04-03T04:36:04.675Z,1.50
2023-04-03T04:38:31.461Z,1.50
2023-04-03T04:40:58.168Z,1.40
2023-04-03T04:43:24.875Z,1.40
2023-04-03T04:46:13.113Z,1.50
2023-04-03T04:48:39.908Z,1.50
2023-04-03T04:51:06.991Z,1.50
2023-04-03T04:53:33.989Z,1.60
2023-04-03T04:56:00.727Z,1.40
2023-04-03T04:58:27.540Z,1.30
2023-04-03T05:01:08.884Z,1.40
2023-04-03T05:03:35.535Z,1.40
2023-04-03T05:06:02.612Z,1.40
2023-04-03T05:08:29.314Z,1.50
2023-04-03T05:10:56.450Z,1.40
2023-04-03T05:13:23.315Z,1.30
2023-04-03T05:15:50.123Z,1.20
2023-04-03T05:18:16.827Z,1.40
2023-04-03T05:20:44.412Z,1.40
2023-04-03T05:23:12.306Z,1.60
2023-04-03T05:25:39.630Z,1.90
2023-04-03T05:28:06.779Z,1.90
2023-04-03T05:30:33.617Z,2.00
2023-04-03T05:33:00.721Z,2.10
2023-04-03T05:35:27.423Z,2.20
2023-04-03T05:37:55.740Z,2.10
2023-04-03T05:40:22.714Z,1.80
2023-04-03T05:42:49.456Z,1.70
2023-04-03T05:45:16.201Z,1.70
2023-04-03T05:47:42.931Z,1.70
2023-04-03T05:50:10.140Z,1.70
2023-04-03T05:52:41.171Z,1.70
2023-04-03T05:55:08.521Z,1.80
2023-04-03T05:57:35.274Z,1.90
2023-04-03T06:00:02.023Z,2.00
2023-04-03T06:02:28.876Z,2.40
2023-04-03T06:04:55.743Z,2.40
2023-04-03T06:07:24.918Z,2.60
2023-04-03T06:09:52.311Z,2.70
2023-04-03T06:12:19.496Z,3.20
2023-04-03T06:14:46.612Z,3.20
2023-04-03T06:17:13.388Z,3.40
2023-04-03T06:19:40.819Z,3.80
2023-04-03T06:22:07.627Z,3.60
2023-04-03T06:24:34.601Z,3.70
2023-04-03T06:27:01.337Z,4.20
2023-04-03T06:29:28.046Z,4.10
2023-04-03T06:31:54.939Z,4.40
2023-04-03T06:34:22.498Z,4.70
2023-04-03T06:36:52.656Z,4.60
2023-04-03T06:39:22.400Z,5.00
2023-04-03T06:41:50.273Z,5.10
2023-04-03T06:44:17.643Z,5.00
2023-04-03T06:46:46.378Z,5.50
2023-04-03T06:49:13.664Z,5.80
2023-04-03T06:51:40.347Z,6.20
2023-04-03T06:54:09.180Z,6.30
2023-04-03T06:56:36.257Z,5.90
2023-04-03T06:59:03.342Z,6.80
2023-04-03T07:01:31.060Z,6.80
2023-04-03T07:03:58.264Z,7.40
2023-04-03T07:06:27.791Z,7.00
2023-04-03T07:08:55.423Z,8.10
2023-04-03T07:11:22.239Z,7.60
2023-04-03T07:13:49.395Z,7.10
2023-04-03T07:16:16.309Z,7.50
2023-04-03T07:18:43.050Z,8.10
2023-04-03T07:21:09.824Z,8.20
2023-04-03T07:23:36.564Z,8.50
2023-04-03T07:26:03.365Z,7.70
2023-04-03T07:28:30.707Z,8.30
2023-04-03T07:31:03.353Z,8.50
2023-04-03T07:33:32.024Z,8.50
2023-04-03T07:36:01.369Z,7.70
2023-04-03T07:38:28.890Z,8.80
2023-04-03T07:40:55.660Z,8.90
2023-04-03T07:43:23.583Z,9.30
2023-04-03T07:45:51.758Z,9.20
2023-04-03T07:48:23.744Z,8.60
2023-04-03T07:50:51.432Z,8.70
2023-04-03T07:53:18.837Z,8.60
2023-04-03T07:55:49.277Z,8.60
2023-04-03T07:58:19.366Z,8.30
2023-04-03T08:00:46.553Z,8.20
2023-04-03T08:03:14.098Z,9.10
2023-04-03T08:05:46.888Z,8.30
2023-04-03T08:08:15.509Z,8.30
2023-04-03T08:10:42.660Z,8.10
2023-04-03T08:13:10.375Z,8.40
2023-04-03T08:15:37.863Z,8.10
2023-04-03T08:18:04.868Z,8.20
2023-04-03T08:20:31.804Z,8.50
2023-04-03T08:22:58.508Z,8.80
2023-04-03T08:25:25.741Z,7.90
2023-04-03T08:27:52.613Z,7.50
2023-04-03T08:30:19.530Z,8.50
2023-04-03T08:32:46.317Z,7.80
2023-04-03T08:35:13.091Z,7.80
2023-04-03T08:37:40.853Z,8.10
2023-04-03T08:40:14.760Z,8.00
2023-04-03T08:43:12.322Z,8.10
2023-04-03T08:45:51.385Z,8.00
2023-04-03T08:48:28.537Z,8.00
2023-04-03T08:51:03.202Z,8.30
2023-04-03T08:53:34.361Z,8.10
2023-04-03T08:56:05.819Z,8.50
2023-04-03T08:58:43.536Z,8.00
2023-04-03T09:01:34.482Z,8.60
2023-04-03T09:04:03.345Z,8.10
2023-04-03T09:06:37.317Z,8.30
2023-04-03T09:09:04.726Z,8.40
2023-04-03T09:12:10.012Z,8.00
2023-04-03T09:14:58.194Z,8.00
2023-04-03T09:17:53.456Z,8.60
2023-04-03T09:20:44.837Z,8.40
2023-04-03T09:23:34.774Z,8.10
2023-04-03T09:26:06.445Z,8.70
2023-04-03T09:28:50.088Z,8.10
2023-04-03T09:31:30.283Z,8.20
2023-04-03T09:34:03.554Z,8.40
2023-04-03T09:36:48.810Z,8.80
2023-04-03T09:39:19.225Z,8.60
2023-04-03T09:42:01.138Z,8.40
2023-04-03T09:44:34.139Z,8.50
2023-04-03T09:47:20.114Z,8.90
2023-04-03T09:49:47.056Z,8.60
2023-04-03T09:52:25.275Z,8.40
2023-04-03T09:54:52.203Z,8.40
2023-04-03T09:57:20.221Z,8.50
2023-04-03T10:00:01.349Z,8.60
2023-04-03T10:02:40.133Z,8.50
2023-04-03T10:05:29.516Z,8.50
2023-04-03T10:08:14.643Z,8.80
2023-04-03T10:10:43.140Z,8.40
2023-04-03T10:13:21.986Z,8.50
2023-04-03T10:16:07.798Z,8.80
2023-04-03T10:18:43.218Z,8.60
2023-04-03T10:21:47.479Z,8.90
2023-04-03T10:24:29.210Z,8.80
2023-04-03T10:27:11.336Z,8.40
2023-04-03T10:29:44.207Z,8.60
2023-04-03T10:32:27.755Z,8.80
2023-04-03T10:35:25.344Z,9.00
2023-04-03T10:38:33.630Z,8.80
2023-04-03T10:41:24.938Z,8.90
2023-04-03T10:43:57.730Z,8.70
2023-04-03T10:46:39.376Z,8.70
2023-04-03T10:49:26.707Z,9.50
2023-04-03T10:52:18.200Z,8.90
2023-04-03T10:55:10.449Z,8.60
2023-04-03T10:57:39.891Z,8.60
2023-04-03T11:00:31.258Z,8.90
2023-04-03T11:03:02.004Z,8.90
2023-04-03T11:05:43.435Z,8.90
2023-04-03T11:08:43.420Z,9.00
2023-04-03T11:11:16.137Z,9.30
2023-04-03T11:14:04.274Z,9.30
2023-04-03T11:16:50.965Z,9.10
2023-04-03T11:19:34.228Z,8.90
2023-04-03T11:22:21.998Z,9.20
2023-04-03T11:25:03.796Z,9.20
2023-04-03T11:27:57.882Z,9.30
2023-04-03T11:30:43.608Z,9.30
2023-04-03T11:33:14.524Z,9.30
2023-04-03T11:35:51.203Z,9.00
2023-04-03T11:38:37.071Z,9.40
2023-04-03T11:41:07.655Z,9.50
2023-04-03T11:43:40.912Z,9.30
2023-04-03T11:46:08.921Z,9.60
2023-04-03T11:48:35.651Z,9.50
2023-04-03T11:51:28.642Z,9.30
2023-04-03T11:53:55.515Z,9.20
2023-04-03T11:56:25.019Z,9.30
2023-04-03T11:59:06.678Z,9.60
2023-04-03T12:01:45.656Z,9.70
2023-04-03T12:04:15.969Z,9.50
2023-04-03T12:06:47.880Z,9.40
2023-04-03T12:09:52.766Z,9.50
2023-04-03T12:12:33.781Z,9.80
2023-04-03T12:15:19.292Z,9.60
2023-04-03T12:17:46.135Z,9.70
2023-04-03T12:20:52.358Z,9.70
2023-04-03T12:23:37.127Z,9.60
2023-04-03T12:26:20.509Z,9.60
2023-04-03T12:28:47.767Z,9.70
2023-04-03T12:31:14.950Z,9.60
2023-04-03T12:34:02.591Z,9.80
2023-04-03T12:37:09.876Z,9.80
2023-04-03T12:39:52.818Z,10.00
2023-04-03T12:42:46.411Z,9.80
2023-04-03T12:45:22.918Z,9.50
2023-04-03T12:47:52.380Z,9.90
2023-04-03T12:50:31.227Z,9.90
2023-04-03T12:53:02.627Z,9.60
2023-04-03T12:55:29.319Z,9.50
2023-04-03T12:57:57.157Z,9.40
2023-04-03T13:00:34.464Z,9.70
2023-04-03T13:03:06.650Z,10.00
2023-04-03T13:05:36.680Z,9.90
2023-04-03T13:08:06.079Z,9.90
2023-04-03T13:10:33.832Z,10.10
2023-04-03T13:13:10.211Z,9.90
2023-04-03T13:15:47.691Z,10.10
2023-04-03T13:18:27.655Z,9.90
2023-04-03T13:21:00.142Z,9.80
2023-04-03T13:23:27.111Z,10.20
2023-04-03T13:25:54.345Z,10.00
2023-04-03T13:28:24.510Z,9.80
2023-04-03T13:31:11.435Z,10.30
2023-04-03T13:33:55.517Z,9.60
2023-04-03T13:36:27.227Z,10.20
2023-04-03T13:39:01.475Z,10.10
2023-04-03T13:41:31.201Z,10.10
2023-04-03T13:44:03.566Z,10.10
2023-04-03T13:46:38.956Z,10.00
2023-04-03T13:49:23.176Z,9.80
2023-04-03T13:52:00.570Z,9.80
2023-04-03T13:54:37.521Z,10.00
2023-04-03T13:57:04.539Z,9.90
2023-04-03T13:59:33.807Z,10.10
2023-04-03T14:02:03.512Z,10.40
2023-04-03T14:04:49.015Z,10.40
2023-04-03T14:07:19.048Z,10.20
2023-04-03T14:09:48.453Z,10.50
2023-04-03T14:12:30.693Z,10.40
2023-04-03T14:15:00.787Z,10.30
2023-04-03T14:17:28.703Z,10.20
2023-04-03T14:19:57.407Z,10.10
2023-04-03T14:22:30.463Z,10.40
2023-04-03T14:24:58.300Z,10.20
2023-04-03T14:27:29.555Z,10.40
2023-04-03T14:29:57.994Z,10.40
2023-04-03T14:32:27.493Z,10.20
2023-04-03T14:34:54.402Z,10.40
2023-04-03T14:37:24.614Z,10.50
2023-04-03T14:39:53.958Z,10.30
2023-04-03T14:42:24.203Z,10.30
2023-04-03T14:44:51.566Z,10.30
2023-04-03T14:47:30.342Z,10.50
2023-04-03T14:49:59.755Z,10.50
2023-04-03T14:52:30.584Z,10.50
2023-04-03T14:54:57.678Z,10.40
2023-04-03T14:57:27.079Z,10.20
2023-04-03T14:59:53.887Z,10.60
2023-04-03T15:02:36.097Z,10.60
2023-04-03T15:05:07.040Z,10.40
2023-04-03T15:07:40.703Z,10.40
2023-04-03T15:10:28.784Z,10.50
2023-04-03T15:12:56.728Z,10.40
2023-04-03T15:15:24.655Z,10.50
2023-04-03T15:17:58.680Z,10.30
2023-04-03T15:20:28.623Z,10.50
2023-04-03T15:22:57.234Z,10.60
2023-04-03T15:25:24.871Z,10.50
2023-04-03T15:27:51.619Z,10.20
2023-04-03T15:30:20.442Z,10.30
2023-04-03T15:32:49.269Z,10.30
2023-04-03T15:35:16.249Z,10.40
2023-04-03T15:37:43.084Z,10.40
2023-04-03T15:40:11.119Z,10.00
2023-04-03T15:42:38.352Z,9.90
2023-04-03T15:45:05.451Z,9.90
2023-04-03T15:47:32.286Z,9.90
2023-04-03T15:50:00.913Z,10.10
2023-04-03T15:52:27.629Z,10.10
2023-04-03T15:54:55.767Z,10.10
2023-04-03T15:57:27.027Z,10.00
2023-04-03T15:59:54.312Z,10.10
2023-04-03T16:02:22.242Z,9.90
2023-04-03T16:04:49.415Z,9.80
2023-04-03T16:07:16.326Z,9.80
2023-04-03T16:09:43.228Z,9.90
2023-04-03T16:12:09.935Z,10.10
2023-04-03T16:14:37.716Z,10.20
2023-04-03T16:17:04.573Z,9.80
2023-04-03T16:19:31.429Z,9.40
2023-04-03T16:21:58.733Z,9.70
2023-04-03T16:24:25.517Z,9.60
2023-04-03T16:26:54.267Z,9.60
2023-04-03T16:29:21.000Z,9.80
2023-04-03T16:31:47.964Z,9.60
2023-04-03T16:34:14.908Z,9.70
2023-04-03T16:36:41.969Z,9.60
2023-04-03T16:39:10.970Z,9.60
2023-04-03T16:41:37.723Z,9.60
2023-04-03T16:44:04.651Z,9.50
2023-04-03T16:46:31.336Z,9.60
2023-04-03T16:48:58.078Z,9.30
2023-04-03T16:51:25.115Z,9.40
2023-04-03T16:53:53.846Z,9.20
2023-04-03T16:56:21.172Z,9.10
2023-04-03T16:58:47.982Z,9.20
2023-04-03T17:01:17.820Z,9.10
2023-04-03T17:03:45.788Z,9.10
2023-04-03T17:06:17.304Z,9.20
2023-04-03T17:08:46.490Z,9.00
2023-04-03T17:11:13.936Z,9.10
2023-04-03T17:13:40.890Z,9.10
2023-04-03T17:16:12.015Z,8.80
2023-04-03T17:18:38.917Z,8.90
2023-04-03T17:21:06.261Z,9.00
2023-04-03T17:23:35.538Z,8.90
2023-04-03T17:26:05.471Z,8.60
2023-04-03T17:28:33.342Z,8.70
2023-04-03T17:31:02.278Z,8.80
2023-04-03T17:33:32.740Z,8.80
2023-04-03T17:36:02.492Z,8.90
2023-04-03T17:38:29.185Z,8.90
2023-04-03T17:41:02.173Z,8.60
2023-04-03T17:43:29.525Z,8.80
2023-04-03T17:46:03.841Z,8.50
2023-04-03T17:48:32.070Z,8.30
2023-04-03T17:50:59.153Z,8.40
2023-04-03T17:53:27.601Z,8.30
2023-04-03T17:55:54.455Z,8.30
2023-04-03T17:58:21.108Z,8.60
2023-04-03T18:00:47.824Z,8.30
2023-04-03T18:03:14.566Z,8.50
2023-04-03T18:05:41.418Z,8.40
2023-04-03T18:08:08.229Z,8.20
2023-04-03T18:10:37.361Z,8.10
2023-04-03T18:13:07.246Z,8.10
2023-04-03T18:15:34.046Z,8.10
2023-04-03T18:18:00.740Z,8.00
2023-04-03T18:20:27.492Z,7.90
2023-04-03T18:22:54.225Z,7.70
2023-04-03T18:25:20.993Z,7.70
2023-04-03T18:27:48.907Z,7.90
2023-04-03T18:30:17.741Z,7.80
2023-04-03T18:32:44.806Z,7.80
2023-04-03T18:35:11.663Z,7.60
2023-04-03T18:37:38.539Z,7.70
2023-04-03T18:40:05.907Z,7.70
2023-04-03T18:42:32.613Z,7.80
2023-04-03T18:45:02.481Z,7.50
2023-04-03T18:47:29.690Z,7.70
2023-04-03T18:49:56.724Z,7.50
2023-04-03T18:52:25.351Z,7.50
2023-04-03T18:54:53.086Z,7.40
2023-04-03T18:57:19.741Z,7.40
2023-04-03T18:59:46.460Z,7.20
2023-04-03T19:02:16.602Z,7.20
2023-04-03T19:04:43.396Z,7.10
2023-04-03T19:07:10.765Z,7.20
2023-04-03T19:09:39.677Z,7.10
2023-04-03T19:12:07.334Z,7.10
2023-04-03T19:14:34.069Z,7.10
2023-04-03T19:17:02.289Z,7.10
2023-04-03T19:19:29.633Z,7.00
2023-04-03T19:21:56.284Z,6.80
2023-04-03T19:24:22.973Z,6.90
2023-04-03T19:26:49.702Z,6.70
2023-04-03T19:29:16.463Z,6.80
2023-04-03T19:31:43.203Z,6.80
2023-04-03T19:34:10.001Z,6.70
2023-04-03T19:36:37.559Z,6.70
2023-04-03T19:39:05.974Z,6.70
2023-04-03T19:41:35.029Z,6.60
2023-04-03T19:44:03.689Z,6.60
2023-04-03T19:46:31.714Z,6.40
2023-04-03T19:48:58.669Z,6.30
2023-04-03T19:51:25.528Z,6.30
2023-04-03T19:53:52.872Z,6.20
2023-04-03T19:56:21.824Z,6.10
2023-04-03T19:58:54.007Z,6.10
2023-04-03T20:01:22.274Z,6.00
2023-04-03T20:03:49.134Z,5.90
2023-04-03T20:06:16.966Z,5.90
2023-04-03T20:08:43.794Z,5.80
2023-04-03T20:11:11.141Z,5.70
2023-04-03T20:13:38.579Z,5.70
2023-04-03T20:16:07.346Z,5.60
2023-04-03T20:18:35.047Z,5.50
2023-04-03T20:21:04.149Z,5.50
2023-04-03T20:23:31.320Z,5.40
2023-04-03T20:26:09.442Z,5.40
2023-04-03T20:28:40.688Z,5.50
2023-04-03T20:31:09.930Z,5.70
2023-04-03T20:33:39.016Z,7.10
2023-04-03T20:36:06.168Z,7.60
2023-04-03T20:38:32.926Z,7.90
2023-04-03T20:41:00.248Z,8.10
2023-04-03T20:43:28.238Z,8.20
2023-04-03T20:45:54.958Z,8.30
2023-04-03T20:48:22.372Z,8.30
2023-04-03T20:50:49.135Z,8.30
2023-04-03T20:53:18.125Z,8.30
2023-04-03T20:56:08.962Z,8.30
2023-04-03T20:58:38.845Z,8.20
2023-04-03T21:01:21.290Z,8.30
2023-04-03T21:03:50.669Z,8.30
2023-04-03T21:06:55.579Z,8.30
2023-04-03T21:09:59.799Z,8.40
2023-04-03T21:13:04.365Z,8.50
2023-04-03T21:15:46.459Z,8.40
2023-04-03T21:18:13.118Z,8.30
2023-04-03T21:20:40.718Z,8.40
2023-04-03T21:23:07.726Z,8.40
2023-04-03T21:25:34.905Z,8.40
2023-04-03T21:28:02.440Z,8.50
2023-04-03T21:30:29.199Z,8.50
2023-04-03T21:32:56.483Z,8.50
2023-04-03T21:35:23.700Z,8.50
2023-04-03T21:37:50.377Z,8.50
2023-04-03T21:40:17.122Z,8.50
2023-04-03T21:42:43.843Z,8.50
2023-04-03T21:45:10.745Z,8.50
2023-04-03T21:47:38.352Z,8.40
2023-04-03T21:50:06.710Z,8.50
2023-04-03T21:52:33.432Z,8.40
2023-04-03T21:55:00.115Z,8.30
2023-04-03T21:57:26.815Z,8.30
2023-04-03T21:59:53.540Z,8.30
2023-04-03T22:02:20.913Z,8.30
2023-04-03T22:04:47.686Z,8.40
2023-04-03T22:07:14.443Z,8.40
2023-04-03T22:09:41.391Z,8.50
2023-04-03T22:12:11.693Z,8.40
2023-04-03T22:14:39.592Z,8.30
2023-04-03T22:17:07.275Z,8.30
2023-04-03T22:19:34.288Z,8.40
2023-04-03T22:22:03.336Z,8.40
2023-04-03T22:24:30.450Z,8.30
2023-04-03T22:26:57.167Z,8.30
2023-04-03T22:29:23.914Z,8.30
2023-04-03T22:31:50.742Z,8.30
2023-04-03T22:34:17.537Z,8.30
2023-04-03T22:36:44.319Z,8.40
2023-04-03T22:39:12.278Z,8.40
2023-04-03T22:41:39.075Z,8.20
2023-04-03T22:44:06.895Z,8.20
2023-04-03T22:46:33.564Z,8.30
2023-04-03T22:49:00.612Z,8.40
2023-04-03T22:51:27.330Z,8.30
2023-04-03T22:53:53.970Z,8.30
2023-04-03T22:56:23.255Z,8.30
2023-04-03T22:58:51.545Z,8.20
2023-04-03T23:01:20.102Z,8.20
2023-04-03T23:03:46.870Z,8.30
2023-04-03T23:06:14.084Z,8.30
2023-04-03T23:08:41.962Z,8.30
2023-04-03T23:11:09.595Z,8.10
2023-04-03T23:13:36.509Z,8.10
2023-04-03T23:16:03.702Z,8.20
2023-04-03T23:18:32.532Z,8.20
2023-04-03T23:21:00.732Z,8.20
2023-04-03T23:23:27.724Z,8.10
2023-04-03T23:25:59.286Z,8.10
2023-04-03T23:28:27.219Z,8.00
2023-04-03T23:31:02.422Z,8.10
2023-04-03T23:33:30.732Z,8.10
2023-04-03T23:35:58.639Z,8.10
2023-04-03T23:38:25.761Z,8.10
2023-04-03T23:40:52.516Z,7.90
2023-04-03T23:43:19.273Z,8.00
2023-04-03T23:45:46.105Z,7.90
2023-04-03T23:48:13.117Z,7.90
2023-04-03T23:50:40.106Z,7.70
2023-04-03T23:53:07.226Z,7.50
2023-04-03T23:55:34.124Z,7.50
2023-04-03T23:58:00.801Z,7.70
